Time;durP1;ratioP1;P1;durP2;ratioP2;P2;SDS_P1;SDS_P2;PMS_P1;PMS_P2;Temp;Humidity;BMP_temperature;BMP_pressure;BME280_temperature;BME280_humidity;BME280_pressure;Samples;Min_cycle;Max_cycle;Signal;HPM_P1;HPM_P2
2021/10/12 00:00:01;;;;;;;0.10;0.10;;;;;;;;;;10369986;28;20460;-71
2021/10/12 00:05:13;;;;;;;0.10;0.10;;;;;;;;;;10352566;28;20416;-69
2021/10/12 00:10:17;;;;;;;0.10;0.10;;;;;;;;;;10396594;28;20057;-70
2021/10/12 00:15:20;;;;;;;0.10;0.10;;;;;;;;;;10434735;28;20123;-70
2021/10/12 00:20:23;;;;;;;0.10;0.10;;;;;;;;;;10439468;28;20049;-69
2021/10/12 00:25:27;;;;;;;0.20;0.20;;;;;;;;;;10443292;28;20043;-70
2021/10/12 00:30:30;;;;;;;0.10;0.10;;;;;;;;;;10423573;28;20419;-70
2021/10/12 00:35:33;;;;;;;0.20;0.20;;;;;;;;;;10439796;28;20410;-70
2021/10/12 00:40:37;;;;;;;0.10;0.10;;;;;;;;;;10441479;28;20662;-70
2021/10/12 00:45:41;;;;;;;0.10;0.10;;;;;;;;;;10439381;28;20045;-70
2021/10/12 00:50:44;;;;;;;0.15;0.13;;;;;;;;;;10440858;28;20041;-70
2021/10/12 00:55:48;;;;;;;0.10;0.10;;;;;;;;;;10441604;28;20357;-70
2021/10/12 01:00:51;;;;;;;0.10;0.10;;;;;;;;;;10422752;28;20128;-70
2021/10/12 01:05:54;;;;;;;0.10;0.10;;;;;;;;;;10438921;28;20029;-70
2021/10/12 01:10:59;;;;;;;0.10;0.10;;;;;;;;;;10441455;28;20052;-70
2021/10/12 01:16:02;;;;;;;0.10;0.10;;;;;;;;;;10445663;28;20041;-70
2021/10/12 01:21:06;;;;;;;0.20;0.20;;;;;;;;;;10463068;28;20049;-70
2021/10/12 01:26:09;;;;;;;0.10;0.10;;;;;;;;;;10468678;28;20049;-70
2021/10/12 01:31:14;;;;;;;0.20;0.20;;;;;;;;;;10428976;28;20067;-70
2021/10/12 01:36:18;;;;;;;0.10;0.10;;;;;;;;;;10439677;28;20049;-70
2021/10/12 01:41:21;;;;;;;0.10;0.10;;;;;;;;;;10438550;28;20045;-70
2021/10/12 01:46:24;;;;;;;0.10;0.10;;;;;;;;;;10439061;28;20049;-70
2021/10/12 01:51:28;;;;;;;0.00;0.00;;;;;;;;;;10440388;28;20982;-70
2021/10/12 01:56:31;;;;;;;0.15;0.15;;;;;;;;;;10439449;28;20052;-69
2021/10/12 02:01:34;;;;;;;0.10;0.10;;;;;;;;;;10422649;28;20143;-69
2021/10/12 02:06:38;;;;;;;0.10;0.10;;;;;;;;;;10421658;28;20067;-70
2021/10/12 02:11:41;;;;;;;0.20;0.10;;;;;;;;;;10438267;28;20053;-69
2021/10/12 02:16:43;;;;;;;0.10;0.10;;;;;;;;;;10438575;28;20045;-70
2021/10/12 02:21:48;;;;;;;0.10;0.10;;;;;;;;;;10438681;28;20051;-70
2021/10/12 02:26:50;;;;;;;0.10;0.10;;;;;;;;;;10437819;28;20033;-70
2021/10/12 02:31:53;;;;;;;0.10;0.10;;;;;;;;;;10438224;28;21226;-70
2021/10/12 02:36:57;;;;;;;0.10;0.10;;;;;;;;;;10437756;28;20693;-70
2021/10/12 02:42:00;;;;;;;0.10;0.10;;;;;;;;;;10437325;28;20044;-70
2021/10/12 02:47:03;;;;;;;0.15;0.15;;;;;;;;;;10437147;28;20678;-70
2021/10/12 02:52:07;;;;;;;0.10;0.10;;;;;;;;;;10436748;28;20406;-70
2021/10/12 02:57:10;;;;;;;0.10;0.10;;;;;;;;;;10436644;28;20041;-70
2021/10/12 03:02:13;;;;;;;0.10;0.10;;;;;;;;;;10431958;28;20051;-70
2021/10/12 03:07:17;;;;;;;0.20;0.13;;;;;;;;;;10435586;28;20612;-70
2021/10/12 03:12:20;;;;;;;0.10;0.10;;;;;;;;;;10414120;28;20140;-70
2021/10/12 03:17:23;;;;;;;0.10;0.10;;;;;;;;;;10435475;28;20191;-70
2021/10/12 03:22:27;;;;;;;0.10;0.10;;;;;;;;;;10434764;28;20041;-70
2021/10/12 03:27:30;;;;;;;0.10;0.10;;;;;;;;;;10435265;28;20079;-70
2021/10/12 03:32:33;;;;;;;0.10;0.10;;;;;;;;;;10435936;28;20124;-70
2021/10/12 03:37:37;;;;;;;0.10;0.10;;;;;;;;;;10434754;28;20142;-70
2021/10/12 03:42:40;;;;;;;0.10;0.10;;;;;;;;;;10416017;28;20072;-70
2021/10/12 03:47:43;;;;;;;0.10;0.10;;;;;;;;;;10433906;28;20879;-70
2021/10/12 03:52:48;;;;;;;0.10;0.10;;;;;;;;;;10415490;28;20064;-70
2021/10/12 03:57:51;;;;;;;0.17;0.17;;;;;;;;;;10415718;28;20045;-70
2021/10/12 04:02:53;;;;;;;0.10;0.10;;;;;;;;;;10416644;28;20056;-70
2021/10/12 04:07:58;;;;;;;0.15;0.15;;;;;;;;;;10434616;28;20056;-69
2021/10/12 04:13:01;;;;;;;0.10;0.10;;;;;;;;;;10432939;28;20402;-70
2021/10/12 04:18:04;;;;;;;0.10;0.10;;;;;;;;;;10435315;28;20040;-70
2021/10/12 04:23:10;;;;;;;0.10;0.10;;;;;;;;;;10432928;28;20061;-70
2021/10/12 04:28:13;;;;;;;0.20;0.20;;;;;;;;;;10434833;28;20662;-70
2021/10/12 04:33:16;;;;;;;0.10;0.10;;;;;;;;;;10413748;28;20060;-70
2021/10/12 04:38:20;;;;;;;0.10;0.10;;;;;;;;;;10433392;28;20476;-70
2021/10/12 04:43:23;;;;;;;0.10;0.10;;;;;;;;;;10413204;28;20084;-70
2021/10/12 04:48:26;;;;;;;0.15;0.10;;;;;;;;;;10432405;28;20037;-70
2021/10/12 04:53:30;;;;;;;0.10;0.10;;;;;;;;;;10414758;28;20045;-69
2021/10/12 04:58:33;;;;;;;0.20;0.20;;;;;;;;;;10432231;28;20033;-70
2021/10/12 05:03:35;;;;;;;0.10;0.10;;;;;;;;;;10432327;28;20497;-69
2021/10/12 05:08:40;;;;;;;0.20;0.20;;;;;;;;;;10438739;28;20488;-70
2021/10/12 05:13:42;;;;;;;0.10;0.10;;;;;;;;;;10440320;28;20648;-70
2021/10/12 05:18:47;;;;;;;0.10;0.10;;;;;;;;;;10436573;28;20896;-70
2021/10/12 05:23:51;;;;;;;0.10;0.10;;;;;;;;;;10436011;28;20052;-70
2021/10/12 05:28:54;;;;;;;0.10;0.10;;;;;;;;;;10438742;28;20044;-70
2021/10/12 05:33:57;;;;;;;0.10;0.10;;;;;;;;;;10438240;28;20158;-70
2021/10/12 05:39:01;;;;;;;0.20;0.20;;;;;;;;;;10438859;28;20850;-70
2021/10/12 05:44:04;;;;;;;0.15;0.15;;;;;;;;;;10420940;28;20053;-70
2021/10/12 05:49:06;;;;;;;0.15;0.15;;;;;;;;;;10437888;28;20041;-69
2021/10/12 05:54:14;;;;;;;0.10;0.10;;;;;;;;;;10420306;28;20045;-69
2021/10/12 05:59:17;;;;;;;0.10;0.10;;;;;;;;;;10418100;28;20041;-69
2021/10/12 06:04:20;;;;;;;0.20;0.20;;;;;;;;;;10437267;28;20057;-67
2021/10/12 06:09:24;;;;;;;0.13;0.10;;;;;;;;;;10434975;28;20053;-65
2021/10/12 06:14:26;;;;;;;0.10;0.10;;;;;;;;;;10435953;28;20047;-67
2021/10/12 06:19:29;;;;;;;0.10;0.10;;;;;;;;;;10435073;28;20045;-66
2021/10/12 06:24:33;;;;;;;0.10;0.10;;;;;;;;;;10437244;28;20525;-65
2021/10/12 06:29:36;;;;;;;0.10;0.10;;;;;;;;;;10436655;28;20052;-66
2021/10/12 06:34:39;;;;;;;0.17;0.17;;;;;;;;;;10435923;28;20051;-66
2021/10/12 06:39:43;;;;;;;0.20;0.20;;;;;;;;;;10436250;28;20045;-68
2021/10/12 06:44:45;;;;;;;0.10;0.10;;;;;;;;;;10433359;28;20060;-70
2021/10/12 06:49:48;;;;;;;0.10;0.10;;;;;;;;;;10435910;28;20052;-69
2021/10/12 06:54:52;;;;;;;0.20;0.20;;;;;;;;;;10436906;28;20056;-69
2021/10/12 06:59:55;;;;;;;0.10;0.10;;;;;;;;;;10435230;28;20055;-68
2021/10/12 07:04:58;;;;;;;0.20;0.20;;;;;;;;;;10435077;28;20041;-68
2021/10/12 07:10:03;;;;;;;0.10;0.10;;;;;;;;;;10434285;28;20401;-68
2021/10/12 07:15:06;;;;;;;0.10;0.10;;;;;;;;;;10436055;28;20061;-69
2021/10/12 07:20:09;;;;;;;0.10;0.10;;;;;;;;;;10434686;28;20045;-68
2021/10/12 07:25:13;;;;;;;0.10;0.10;;;;;;;;;;10435251;28;20045;-69
2021/10/12 07:30:16;;;;;;;0.10;0.10;;;;;;;;;;10434174;28;20049;-68
2021/10/12 07:35:19;;;;;;;0.10;0.10;;;;;;;;;;10433928;28;20033;-68
2021/10/12 07:40:23;;;;;;;0.10;0.10;;;;;;;;;;10431740;28;20045;-69
2021/10/12 07:45:26;;;;;;;0.10;0.10;;;;;;;;;;10432354;28;20047;-69
2021/10/12 07:50:29;;;;;;;0.10;0.10;;;;;;;;;;10434227;28;20498;-69
2021/10/12 07:55:35;;;;;;;0.10;0.10;;;;;;;;;;10435077;28;20048;-69
2021/10/12 08:00:38;;;;;;;0.10;0.10;;;;;;;;;;10433227;28;20527;-69
2021/10/12 08:05:41;;;;;;;0.10;0.10;;;;;;;;;;10415577;28;20045;-69
2021/10/12 08:10:45;;;;;;;0.10;0.10;;;;;;;;;;10431163;28;20051;-69
2021/10/12 08:15:51;;;;;;;0.05;0.05;;;;;;;;;;10434159;28;20060;-70
2021/10/12 08:20:56;;;;;;;0.10;0.10;;;;;;;;;;10435217;28;20037;-70
2021/10/12 08:26:00;;;;;;;0.10;0.10;;;;;;;;;;10415715;28;20045;-68
2021/10/12 08:31:03;;;;;;;0.20;0.10;;;;;;;;;;10433714;28;20060;-69
2021/10/12 08:36:06;;;;;;;0.10;0.10;;;;;;;;;;10419708;28;20053;-69
2021/10/12 08:41:31;;;;;;;0.10;0.10;;;;;;;;;;10448364;28;20044;-70
2021/10/12 08:46:35;;;;;;;0.10;0.10;;;;;;;;;;10451423;28;20163;-71
2021/10/12 08:51:38;;;;;;;0.10;0.10;;;;;;;;;;10452905;28;20392;-71
2021/10/12 08:56:42;;;;;;;0.10;0.10;;;;;;;;;;10439292;28;20033;-71
2021/10/12 09:01:58;;;;;;;0.10;0.10;;;;;;;;;;10436089;28;20052;-71
2021/10/12 09:07:01;;;;;;;0.10;0.10;;;;;;;;;;10439832;28;20061;-71
2021/10/12 09:12:08;;;;;;;0.10;0.10;;;;;;;;;;10444019;28;20512;-71
2021/10/12 09:17:11;;;;;;;0.10;0.10;;;;;;;;;;10439187;28;20123;-70
2021/10/12 09:22:18;;;;;;;0.10;0.10;;;;;;;;;;10435228;28;20126;-70
2021/10/12 09:27:25;;;;;;;0.10;0.10;;;;;;;;;;10437440;28;20048;-71
2021/10/12 09:32:33;;;;;;;0.10;0.10;;;;;;;;;;10420753;28;20122;-72
2021/10/12 09:37:36;;;;;;;0.10;0.10;;;;;;;;;;10439418;28;20789;-71
2021/10/12 09:42:42;;;;;;;0.10;0.10;;;;;;;;;;10437978;28;20053;-72
2021/10/12 09:47:45;;;;;;;0.17;0.10;;;;;;;;;;10437794;28;20824;-72
2021/10/12 09:52:48;;;;;;;0.20;0.20;;;;;;;;;;10438939;28;20593;-73
2021/10/12 09:58:12;;;;;;;0.10;0.10;;;;;;;;;;10438284;28;20040;-72
2021/10/12 10:03:16;;;;;;;0.10;0.10;;;;;;;;;;10418325;28;20065;-69
2021/10/12 10:08:20;;;;;;;0.10;0.10;;;;;;;;;;10445366;28;20057;-70
2021/10/12 10:13:25;;;;;;;0.15;0.10;;;;;;;;;;10437436;28;20057;-72
2021/10/12 10:18:28;;;;;;;0.10;0.10;;;;;;;;;;10439215;28;20119;-71
2021/10/12 10:23:56;;;;;;;0.10;0.10;;;;;;;;;;10437161;28;20049;-73
2021/10/12 10:29:23;;;;;;;0.20;0.10;;;;;;;;;;10436696;28;20048;-74
2021/10/12 10:34:46;;;;;;;0.10;0.10;;;;;;;;;;10418246;28;20059;-73
2021/10/12 10:39:50;;;;;;;0.10;0.10;;;;;;;;;;10437505;28;20483;-73
2021/10/12 10:44:55;;;;;;;0.10;0.10;;;;;;;;;;10437600;28;20044;-74
2021/10/12 10:50:10;;;;;;;0.10;0.10;;;;;;;;;;10436698;28;20541;-74
2021/10/12 10:55:13;;;;;;;0.10;0.10;;;;;;;;;;10437379;28;20095;-74
2021/10/12 11:00:24;;;;;;;0.10;0.10;;;;;;;;;;10432734;28;20395;-74
2021/10/12 11:05:34;;;;;;;0.10;0.10;;;;;;;;;;10436160;28;20421;-74
2021/10/12 11:10:37;;;;;;;0.05;0.05;;;;;;;;;;10418266;28;20068;-74
2021/10/12 11:15:48;;;;;;;0.10;0.10;;;;;;;;;;10435924;28;20410;-73
2021/10/12 11:20:53;;;;;;;0.00;0.00;;;;;;;;;;10432589;28;20562;-73
2021/10/12 11:25:57;;;;;;;0.10;0.10;;;;;;;;;;10434184;28;20053;-73
2021/10/12 11:31:02;;;;;;;0.10;0.10;;;;;;;;;;10435355;28;20049;-72
2021/10/12 11:36:07;;;;;;;0.05;0.05;;;;;;;;;;10434216;28;20303;-72
2021/10/12 11:41:14;;;;;;;0.10;0.10;;;;;;;;;;10434911;28;20055;-72
2021/10/12 11:46:22;;;;;;;0.10;0.10;;;;;;;;;;10435441;28;20391;-72
2021/10/12 11:51:32;;;;;;;0.10;0.10;;;;;;;;;;10435008;28;20045;-72
2021/10/12 11:56:36;;;;;;;0.10;0.10;;;;;;;;;;10434881;28;20049;-73
2021/10/12 12:01:42;;;;;;;0.10;0.10;;;;;;;;;;10436086;28;20126;-73
2021/10/12 12:06:45;;;;;;;0.10;0.10;;;;;;;;;;10436588;28;20045;-73
2021/10/12 12:11:48;;;;;;;0.10;0.10;;;;;;;;;;10433711;28;20045;-73
2021/10/12 12:22:21;;;;;;;0.10;0.10;;;;;;;;;;10512536;28;20634;-73
2021/10/12 12:27:25;;;;;;;0.10;0.10;;;;;;;;;;10511684;28;20068;-73
2021/10/12 12:32:27;;;;;;;0.10;0.10;;;;;;;;;;10512517;28;20040;-73
2021/10/12 12:37:32;;;;;;;0.03;0.03;;;;;;;;;;10510367;27;20064;-72
2021/10/12 12:42:35;;;;;;;0.08;0.08;;;;;;;;;;10511065;28;20040;-70
2021/10/12 12:47:38;;;;;;;0.10;0.10;;;;;;;;;;10510058;28;20806;-71
2021/10/12 12:52:42;;;;;;;0.10;0.10;;;;;;;;;;10509431;28;20163;-70
2021/10/12 12:57:54;;;;;;;0.10;0.10;;;;;;;;;;10509833;28;20052;-69
2021/10/12 13:02:58;;;;;;;0.10;0.10;;;;;;;;;;10508144;28;20131;-70
2021/10/12 13:08:02;;;;;;;0.10;0.10;;;;;;;;;;10511017;28;20405;-72
2021/10/12 13:13:05;;;;;;;0.10;0.10;;;;;;;;;;10510904;27;20060;-72
2021/10/12 13:18:08;;;;;;;0.10;0.10;;;;;;;;;;10509639;28;20064;-71
2021/10/12 13:23:12;;;;;;;0.10;0.10;;;;;;;;;;10506430;28;20062;-72
2021/10/12 13:28:15;;;;;;;0.10;0.10;;;;;;;;;;10509389;28;20648;-70
2021/10/12 13:33:18;;;;;;;0.00;0.00;;;;;;;;;;10482633;28;20045;-72
2021/10/12 13:38:22;;;;;;;0.10;0.10;;;;;;;;;;10481881;28;20384;-70
2021/10/12 13:43:25;;;;;;;0.10;0.10;;;;;;;;;;10480753;28;20368;-70
2021/10/12 13:48:29;;;;;;;0.10;0.10;;;;;;;;;;10480346;28;20040;-70
2021/10/12 13:53:33;;;;;;;0.10;0.10;;;;;;;;;;10480106;28;20121;-70
2021/10/12 13:58:36;;;;;;;0.10;0.10;;;;;;;;;;10480902;28;20040;-70
2021/10/12 14:03:41;;;;;;;0.10;0.10;;;;;;;;;;10481353;28;20111;-70
2021/10/12 14:08:45;;;;;;;0.03;0.03;;;;;;;;;;10480630;28;20791;-70
2021/10/12 14:13:48;;;;;;;0.10;0.10;;;;;;;;;;10477418;28;20043;-70
2021/10/12 14:18:52;;;;;;;0.10;0.10;;;;;;;;;;10480593;28;20048;-70
2021/10/12 14:23:58;;;;;;;0.10;0.10;;;;;;;;;;10480084;28;20056;-70
2021/10/12 14:29:05;;;;;;;0.10;0.10;;;;;;;;;;10479126;28;20051;-70
2021/10/12 14:34:07;;;;;;;0.00;0.00;;;;;;;;;;10472362;28;20044;-70
2021/10/12 14:39:12;;;;;;;0.03;0.03;;;;;;;;;;10478596;28;20753;-70
2021/10/12 14:44:15;;;;;;;0.00;0.00;;;;;;;;;;10474512;28;20045;-70
2021/10/12 14:49:18;;;;;;;0.00;0.00;;;;;;;;;;10476206;28;20037;-70
2021/10/12 14:54:23;;;;;;;0.00;0.00;;;;;;;;;;10477461;28;20143;-70
2021/10/12 14:59:26;;;;;;;0.22;0.22;;;;;;;;;;10473591;28;20399;-70
2021/10/12 15:04:29;;;;;;;0.00;0.00;;;;;;;;;;10476444;28;20855;-70
2021/10/12 15:09:33;;;;;;;0.10;0.10;;;;;;;;;;10477589;28;20123;-70
2021/10/12 15:14:36;;;;;;;0.00;0.00;;;;;;;;;;10477279;28;20048;-70
2021/10/12 15:19:39;;;;;;;0.10;0.10;;;;;;;;;;10476290;28;20063;-70
2021/10/12 15:24:43;;;;;;;0.00;0.00;;;;;;;;;;10477926;28;20121;-71
2021/10/12 15:29:46;;;;;;;0.00;0.00;;;;;;;;;;10477238;28;20098;-68
2021/10/12 15:34:53;;;;;;;0.10;0.10;;;;;;;;;;10476327;28;20472;-68
2021/10/12 15:40:01;;;;;;;0.08;0.08;;;;;;;;;;10474934;28;20071;-70
2021/10/12 15:45:06;;;;;;;0.10;0.10;;;;;;;;;;10475018;28;20584;-68
2021/10/12 15:50:09;;;;;;;0.10;0.10;;;;;;;;;;10476811;28;20051;-74
2021/10/12 15:55:14;;;;;;;0.10;0.10;;;;;;;;;;10474804;28;20044;-70
2021/10/12 16:00:18;;;;;;;0.10;0.10;;;;;;;;;;10449666;28;20053;-71
2021/10/12 16:05:22;;;;;;;0.10;0.10;;;;;;;;;;10388155;28;20049;-69
2021/10/12 16:10:26;;;;;;;0.10;0.10;;;;;;;;;;10390907;28;20049;-68
2021/10/12 16:21:06;;;;;;;0.10;0.10;;;;;;;;;;10397801;28;20419;-70
2021/10/12 16:26:12;;;;;;;0.10;0.10;;;;;;;;;;10389424;28;20040;-73
2021/10/12 16:31:15;;;;;;;0.10;0.10;;;;;;;;;;10389146;28;20042;-72
2021/10/12 16:36:17;;;;;;;0.10;0.10;;;;;;;;;;10391362;28;20045;-73
2021/10/12 16:41:22;;;;;;;0.10;0.10;;;;;;;;;;10389789;28;20480;-74
2021/10/12 16:46:24;;;;;;;0.10;0.10;;;;;;;;;;10391521;28;20053;-72
2021/10/12 16:51:28;;;;;;;0.10;0.10;;;;;;;;;;10389787;28;20076;-69
2021/10/12 16:56:32;;;;;;;0.10;0.10;;;;;;;;;;10390877;28;20041;-69
2021/10/12 17:01:34;;;;;;;0.10;0.10;;;;;;;;;;10391877;28;20037;-67
2021/10/12 17:06:39;;;;;;;0.10;0.10;;;;;;;;;;10394596;28;20076;-69
2021/10/12 17:11:45;;;;;;;0.10;0.10;;;;;;;;;;10400400;28;20040;-67
2021/10/12 17:16:49;;;;;;;0.10;0.10;;;;;;;;;;10397783;28;20034;-68
2021/10/12 17:21:53;;;;;;;0.10;0.10;;;;;;;;;;10398141;28;20045;-68
2021/10/12 17:26:57;;;;;;;0.10;0.10;;;;;;;;;;10392250;28;20401;-70
2021/10/12 17:32:00;;;;;;;0.10;0.10;;;;;;;;;;10398261;28;20044;-70
2021/10/12 17:37:10;;;;;;;0.10;0.10;;;;;;;;;;10397302;28;20037;-71
2021/10/12 17:42:16;;;;;;;0.10;0.10;;;;;;;;;;10388560;28;20033;-69
2021/10/12 17:47:19;;;;;;;0.10;0.10;;;;;;;;;;10393672;28;20053;-69
2021/10/12 17:52:23;;;;;;;0.10;0.10;;;;;;;;;;10398952;28;20536;-68
2021/10/12 17:57:27;;;;;;;0.10;0.10;;;;;;;;;;10392685;28;20062;-66
2021/10/12 18:02:31;;;;;;;0.10;0.10;;;;;;;;;;10394307;28;20504;-66
2021/10/12 18:07:35;;;;;;;0.10;0.10;;;;;;;;;;10396846;28;20033;-68
2021/10/12 18:12:39;;;;;;;0.10;0.10;;;;;;;;;;10397440;28;20060;-68
2021/10/12 18:17:43;;;;;;;0.10;0.10;;;;;;;;;;10397041;28;20049;-67
2021/10/12 18:22:47;;;;;;;1.08;0.10;;;;;;;;;;10394380;28;20144;-70
2021/10/12 18:27:52;;;;;;;0.10;0.10;;;;;;;;;;10395684;28;20052;-67
2021/10/12 18:33:13;;;;;;;0.10;0.10;;;;;;;;;;10395189;28;20069;-67
2021/10/12 18:38:16;;;;;;;0.13;0.13;;;;;;;;;;10393954;28;20064;-69
2021/10/12 18:43:25;;;;;;;0.10;0.10;;;;;;;;;;10392502;28;20049;-68
2021/10/12 18:48:28;;;;;;;0.10;0.10;;;;;;;;;;10395629;28;20791;-68
2021/10/12 18:53:32;;;;;;;0.10;0.10;;;;;;;;;;10392748;28;20049;-71
2021/10/12 18:58:37;;;;;;;11.63;2.47;;;;;;;;;;10391564;28;20817;-69
2021/10/12 19:03:41;;;;;;;0.20;0.20;;;;;;;;;;10393760;28;20052;-69
2021/10/12 19:08:44;;;;;;;0.10;0.10;;;;;;;;;;10393662;28;20061;-68
2021/10/12 19:13:49;;;;;;;0.10;0.10;;;;;;;;;;10395028;28;20036;-68
2021/10/12 19:18:52;;;;;;;0.10;0.10;;;;;;;;;;10390846;28;20060;-68
2021/10/12 19:23:56;;;;;;;0.10;0.10;;;;;;;;;;10392330;28;20396;-69
2021/10/12 19:29:00;;;;;;;0.10;0.10;;;;;;;;;;10390623;28;20048;-71
2021/10/12 19:34:08;;;;;;;0.10;0.10;;;;;;;;;;10391242;28;20060;-70
2021/10/12 19:39:11;;;;;;;0.10;0.10;;;;;;;;;;10391850;28;20147;-68
2021/10/12 19:44:16;;;;;;;0.10;0.10;;;;;;;;;;10395161;28;20089;-69
2021/10/12 19:49:20;;;;;;;0.10;0.10;;;;;;;;;;10387790;28;20045;-70
2021/10/12 19:54:23;;;;;;;0.70;0.70;;;;;;;;;;10394312;28;20626;-67
2021/10/12 19:59:27;;;;;;;0.63;0.63;;;;;;;;;;10391269;28;20037;-68
2021/10/12 20:04:30;;;;;;;0.60;0.60;;;;;;;;;;10389570;28;20056;-68
2021/10/12 20:09:33;;;;;;;0.20;0.20;;;;;;;;;;10392674;28;20064;-67
2021/10/12 20:14:38;;;;;;;0.20;0.20;;;;;;;;;;10393456;28;20068;-69
2021/10/12 20:25:07;;;;;;;0.10;0.10;;;;;;;;;;10410677;28;20053;-69
2021/10/12 20:30:13;;;;;;;0.20;0.20;;;;;;;;;;10400974;28;20042;-69
2021/10/12 20:35:20;;;;;;;0.10;0.10;;;;;;;;;;10403328;28;20053;-69
2021/10/12 20:40:30;;;;;;;0.10;0.10;;;;;;;;;;10402915;28;20124;-70
2021/10/12 20:45:36;;;;;;;0.20;0.20;;;;;;;;;;10412768;28;20073;-69
2021/10/12 20:50:44;;;;;;;0.20;0.20;;;;;;;;;;10411428;28;20718;-69
2021/10/12 20:55:47;;;;;;;0.20;0.20;;;;;;;;;;10411192;28;20144;-70
2021/10/12 21:00:52;;;;;;;0.13;0.13;;;;;;;;;;10411606;28;20149;-69
2021/10/12 21:06:28;;;;;;;0.10;0.10;;;;;;;;;;10411009;28;20065;-70
2021/10/12 21:11:31;;;;;;;0.20;0.20;;;;;;;;;;10409764;28;20130;-69
2021/10/12 21:16:36;;;;;;;0.20;0.20;;;;;;;;;;10412719;28;20056;-69
2021/10/12 21:21:39;;;;;;;0.10;0.10;;;;;;;;;;10415445;28;20079;-69
2021/10/12 21:26:43;;;;;;;0.20;0.20;;;;;;;;;;10424262;28;20049;-70
2021/10/12 21:31:47;;;;;;;0.10;0.10;;;;;;;;;;10413987;28;20049;-70
2021/10/12 21:36:52;;;;;;;0.20;0.20;;;;;;;;;;10407251;28;20415;-70
2021/10/12 21:41:55;;;;;;;0.10;0.10;;;;;;;;;;10410193;28;20049;-69
2021/10/12 21:46:59;;;;;;;0.20;0.20;;;;;;;;;;10422507;28;20462;-69
2021/10/12 21:52:02;;;;;;;0.20;0.20;;;;;;;;;;10409944;28;20037;-69
2021/10/12 21:57:07;;;;;;;0.10;0.10;;;;;;;;;;10408152;28;20045;-69
2021/10/12 22:02:11;;;;;;;0.13;0.13;;;;;;;;;;10410125;28;20155;-69
2021/10/12 22:07:14;;;;;;;0.10;0.10;;;;;;;;;;10407418;28;20064;-69
2021/10/12 22:12:23;;;;;;;0.20;0.20;;;;;;;;;;10410592;28;20040;-69
2021/10/12 22:17:28;;;;;;;0.20;0.20;;;;;;;;;;10419535;28;20052;-68
2021/10/12 22:22:32;;;;;;;0.20;0.20;;;;;;;;;;10408002;28;20053;-69
2021/10/12 22:27:35;;;;;;;0.15;0.10;;;;;;;;;;10407626;28;20492;-69
2021/10/12 22:32:45;;;;;;;0.20;0.20;;;;;;;;;;10407705;28;20047;-69
2021/10/12 22:37:49;;;;;;;0.13;0.13;;;;;;;;;;10406901;28;20053;-69
2021/10/12 22:42:52;;;;;;;0.20;0.20;;;;;;;;;;10407996;28;20064;-69
2021/10/12 22:48:00;;;;;;;0.20;0.10;;;;;;;;;;10407547;28;20045;-69
2021/10/12 22:53:02;;;;;;;0.20;0.20;;;;;;;;;;10404819;28;20041;-69
2021/10/12 22:58:05;;;;;;;0.17;0.15;;;;;;;;;;10404785;28;20129;-69
2021/10/12 23:03:10;;;;;;;0.10;0.10;;;;;;;;;;10405915;28;20049;-69
2021/10/12 23:08:42;;;;;;;0.10;0.10;;;;;;;;;;10404902;28;20042;-69
2021/10/12 23:13:45;;;;;;;0.20;0.20;;;;;;;;;;10405411;28;20411;-69
2021/10/12 23:18:49;;;;;;;0.10;0.10;;;;;;;;;;10402186;28;20071;-69
2021/10/12 23:23:54;;;;;;;0.10;0.10;;;;;;;;;;10402774;28;20403;-69
2021/10/12 23:28:57;;;;;;;0.10;0.10;;;;;;;;;;10401263;28;20051;-68
2021/10/12 23:34:05;;;;;;;0.20;0.20;;;;;;;;;;10400774;28;20042;-69
2021/10/12 23:39:09;;;;;;;0.10;0.10;;;;;;;;;;10399573;28;20076;-69
2021/10/12 23:44:13;;;;;;;0.20;0.20;;;;;;;;;;10401958;28;20476;-69
2021/10/12 23:49:25;;;;;;;0.10;0.10;;;;;;;;;;10404195;28;20491;-69
2021/10/12 23:54:30;;;;;;;0.20;0.20;;;;;;;;;;10402634;28;20140;-69
2021/10/12 23:59:33;;;;;;;0.10;0.10;;;;;;;;;;10404066;28;20543;-69
